Terminal Aerodrome Forecast
Issued by NWS Melbourne, FL

Home | Current Version | Previous Version | Text Only | Print | Product List | Glossary On
Versions: 1 2 3 4 5 6 7 8 9 10 11 12 13 14 15 16 17 18 19 20 21
000
FTUS42 KMLB 292340
TAFDAB
TAF
KDAB 292340Z 3000/3024 11008G16KT P6SM FEW025 SCT035 BKN250
     FM300100 12006KT P6SM SCT020 BKN250
     FM301400 13012G19KT P6SM FEW025 SCT040 BKN080=

USA.gov is the U.S. government's official web portal to all federal, state and local government web resources and services.